Time;durP1;ratioP1;P1;durP2;ratioP2;P2;SDS_P1;SDS_P2;PMS_P1;PMS_P2;Temp;Humidity;BMP_temperature;BMP_pressure;BME280_temperature;BME280_humidity;BME280_pressure;Samples;Min_cycle;Max_cycle;Signal;HPM_P1;HPM_P2
2021/09/13 00:00:37;;;;;;;;;6.00;6.00;;;;;15.21;63.49;100598.50;5053584;28;48645;-86
2021/09/13 00:03:03;;;;;;;;;8.50;6.75;;;;;15.18;63.53;100601.41;5055403;28;45294;-86
2021/09/13 00:05:28;;;;;;;;;9.50;6.25;;;;;15.09;63.70;100575.31;5053787;28;45210;-86
2021/09/13 00:07:54;;;;;;;;;8.25;7.50;;;;;15.28;63.84;100596.25;5055245;28;45329;-86
2021/09/13 00:10:21;;;;;;;;;7.00;7.00;;;;;15.15;64.10;100577.56;5057096;28;46309;-86
2021/09/13 00:12:47;;;;;;;;;9.75;8.00;;;;;15.22;64.08;100586.84;5057155;28;45632;-86
2021/09/13 00:15:12;;;;;;;;;8.50;7.50;;;;;15.30;64.00;100600.47;5057015;28;45317;-85
2021/09/13 00:17:38;;;;;;;;;13.50;10.75;;;;;15.25;64.27;100575.88;5058932;28;45393;-86
2021/09/13 00:20:05;;;;;;;;;8.00;8.00;;;;;15.29;64.07;100584.53;5056984;28;47737;-86
2021/09/13 00:22:30;;;;;;;;;9.00;8.00;;;;;15.34;63.66;100593.09;5056654;28;45978;-86
2021/09/13 00:24:56;;;;;;;;;6.50;6.50;;;;;15.23;63.96;100572.44;5058147;28;45258;-86
2021/09/13 00:27:21;;;;;;;;;9.00;8.50;;;;;15.25;64.07;100578.56;5058537;28;45387;-86
2021/09/13 00:29:46;;;;;;;;;7.25;7.00;;;;;15.11;64.09;100550.13;5056535;28;47874;-85
2021/09/13 00:32:12;;;;;;;;;7.75;7.75;;;;;15.14;64.39;100560.59;5058057;28;45218;-85
2021/09/13 00:34:37;;;;;;;;;9.50;9.00;;;;;15.14;64.22;100560.59;5058245;28;45213;-85
2021/09/13 00:37:05;;;;;;;;;9.25;8.50;;;;;15.16;64.44;100547.97;5056773;28;45410;-85
2021/09/13 00:39:31;;;;;;;;;8.50;8.50;;;;;15.27;64.63;100565.91;5058049;28;46618;-85
2021/09/13 00:41:56;;;;;;;;;6.25;6.25;;;;;15.26;64.75;100563.34;5057919;28;45325;-86
2021/09/13 00:44:21;;;;;;;;;11.75;9.50;;;;;15.20;64.51;100548.59;5057820;28;45334;-86
2021/09/13 00:46:47;;;;;;;;;6.50;6.50;;;;;15.27;64.38;100562.38;5057932;28;45438;-86
2021/09/13 00:49:12;;;;;;;;;9.50;7.50;;;;;15.20;64.61;100551.25;5057947;28;46491;-85
2021/09/13 00:51:38;;;;;;;;;8.75;8.50;;;;;15.24;64.78;100557.25;5057809;28;45245;-86
2021/09/13 00:54:04;;;;;;;;;8.00;8.00;;;;;15.33;64.90;100573.50;5057992;28;45312;-86
2021/09/13 00:56:29;;;;;;;;;10.25;9.25;;;;;15.24;64.60;100549.22;5056633;28;45257;-85
2021/09/13 00:58:55;;;;;;;;;9.00;8.00;;;;;15.23;64.95;100555.53;5057665;28;45367;-85
2021/09/13 01:01:20;;;;;;;;;8.25;7.00;;;;;15.30;65.09;100565.66;5056285;28;45250;-85
2021/09/13 01:03:46;;;;;;;;;8.25;8.00;;;;;15.27;65.01;100563.22;5056278;28;45138;-86
2021/09/13 01:06:12;;;;;;;;;8.00;7.25;;;;;15.24;64.85;100555.41;5057670;28;45258;-86
2021/09/13 01:08:37;;;;;;;;;9.00;8.25;;;;;15.18;65.04;100543.34;5057793;28;45992;-86
2021/09/13 01:11:03;;;;;;;;;8.50;7.50;;;;;15.28;64.87;100570.28;5057575;28;45240;-86
2021/09/13 01:13:28;;;;;;;;;7.75;7.75;;;;;15.13;65.05;100550.84;5057583;28;45582;-86
2021/09/13 01:15:53;;;;;;;;;10.00;9.00;;;;;15.11;65.17;100554.63;5057308;28;45239;-85
2021/09/13 01:18:19;;;;;;;;;9.75;8.75;;;;;15.19;65.06;100565.63;5057784;28;46451;-86
2021/09/13 01:20:45;;;;;;;;;9.00;7.25;;;;;15.19;65.19;100558.44;5055560;28;45222;-85
2021/09/13 01:23:31;;;;;;;;;12.00;9.00;;;;;15.19;64.93;100557.56;5057553;28;45167;-87
2021/09/13 01:25:57;;;;;;;;;10.50;9.25;;;;;15.21;64.80;100560.16;5055913;28;45253;-86
2021/09/13 01:28:23;;;;;;;;;7.50;7.50;;;;;15.21;65.14;100566.38;5055923;28;47402;-86
2021/09/13 01:30:48;;;;;;;;;6.50;6.50;;;;;15.18;65.09;100566.59;5057126;28;45235;-86
2021/09/13 01:33:14;;;;;;;;;9.50;8.50;;;;;14.97;65.06;100531.56;5057239;28;45287;-86
2021/09/13 01:35:39;;;;;;;;;7.00;7.00;;;;;15.00;65.43;100537.53;5057152;28;45272;-86
2021/09/13 01:38:05;;;;;;;;;10.25;8.00;;;;;15.04;65.84;100543.53;5056916;28;46270;-86
2021/09/13 01:40:31;;;;;;;;;9.75;9.25;;;;;15.05;65.56;100539.00;5056963;28;45269;-86
2021/09/13 01:43:01;;;;;;;;;12.25;9.25;;;;;15.15;65.58;100548.94;5057314;28;45224;-85
2021/09/13 01:45:27;;;;;;;;;11.00;9.00;;;;;14.98;65.88;100530.59;5057233;28;45315;-86
2021/09/13 01:47:54;;;;;;;;;8.25;8.25;;;;;15.06;66.05;100540.72;5056839;28;45570;-86
2021/09/13 01:50:20;;;;;;;;;9.50;8.75;;;;;15.15;65.60;100558.81;5056962;28;45301;-86
2021/09/13 01:52:45;;;;;;;;;7.75;7.50;;;;;15.03;65.87;100549.84;5055457;28;45237;-86
2021/09/13 01:55:11;;;;;;;;;8.75;8.50;;;;;15.03;65.81;100549.84;5056742;28;45170;-85
2021/09/13 01:57:37;;;;;;;;;9.25;9.25;;;;;15.05;65.66;100552.41;5056711;28;46208;-86
2021/09/13 02:00:04;;;;;;;;;8.25;7.75;;;;;15.05;65.91;100552.41;5056383;28;45455;-85
2021/09/13 02:02:29;;;;;;;;;10.00;8.75;;;;;15.09;66.06;100553.88;5056816;28;45229;-86
2021/09/13 02:04:54;;;;;;;;;8.00;8.00;;;;;15.02;65.82;100540.97;5056689;28;45171;-86
2021/09/13 02:07:20;;;;;;;;;7.25;7.25;;;;;14.97;65.86;100539.59;5056738;28;45475;-86
2021/09/13 02:09:47;;;;;;;;;9.00;7.75;;;;;14.91;65.70;100530.19;5056516;28;45235;-84
2021/09/13 02:12:13;;;;;;;;;9.50;7.50;;;;;15.05;65.58;100547.91;5056896;28;45245;-86
2021/09/13 02:14:38;;;;;;;;;6.50;6.50;;;;;15.01;65.47;100539.25;5055089;28;45186;-83
2021/09/13 02:17:04;;;;;;;;;11.25;10.00;;;;;15.08;65.70;100557.53;5056709;28;45190;-86
2021/09/13 02:19:29;;;;;;;;;9.75;8.25;;;;;14.90;65.31;100536.50;5056632;28;45515;-84
2021/09/13 02:21:54;;;;;;;;;8.50;7.25;;;;;15.05;65.50;100552.41;5056674;28;45207;-85
2021/09/13 02:24:20;;;;;;;;;8.00;8.00;;;;;14.90;65.33;100530.31;5056509;28;45218;-86
2021/09/13 02:26:45;;;;;;;;;9.25;9.00;;;;;14.83;65.61;100529.91;5054976;28;47573;-85
2021/09/13 02:29:10;;;;;;;;;9.25;8.00;;;;;14.81;65.47;100534.53;5056646;28;45350;-85
2021/09/13 02:31:36;;;;;;;;;10.00;7.25;;;;;14.70;65.69;100521.06;5056376;28;45236;-85
2021/09/13 02:34:01;;;;;;;;;8.25;6.50;;;;;14.69;66.20;100522.88;5056564;28;45238;-86
2021/09/13 02:36:26;;;;;;;;;9.50;9.00;;;;;14.81;66.13;100545.22;5056439;28;46356;-85
2021/09/13 02:38:52;;;;;;;;;8.75;7.75;;;;;14.81;66.07;100546.06;5056642;28;45189;-85
2021/09/13 02:41:17;;;;;;;;;9.00;8.00;;;;;14.82;66.35;100538.88;5056573;28;45206;-85
2021/09/13 02:43:42;;;;;;;;;10.00;7.25;;;;;14.82;66.22;100536.22;5056522;28;45329;-86
2021/09/13 02:46:08;;;;;;;;;10.00;7.50;;;;;14.88;66.13;100546.50;5055788;28;46046;-85
2021/09/13 02:48:33;;;;;;;;;12.00;10.25;;;;;14.79;66.32;100531.97;5054921;28;45537;-86
2021/09/13 02:50:58;;;;;;;;;8.75;7.75;;;;;14.77;65.98;100517.81;5056489;28;45200;-86
2021/09/13 02:53:24;;;;;;;;;9.75;9.00;;;;;14.77;66.15;100525.00;5056589;28;45234;-86
2021/09/13 02:55:49;;;;;;;;;10.50;9.00;;;;;14.89;66.02;100540.13;5054338;28;47179;-86
2021/09/13 02:58:14;;;;;;;;;10.25;9.00;;;;;14.87;66.26;100539.41;5056281;28;45203;-85
2021/09/13 03:00:40;;;;;;;;;10.00;9.25;;;;;14.61;66.61;100502.00;5056190;28;45131;-84
2021/09/13 03:03:05;;;;;;;;;10.00;8.50;;;;;14.72;66.58;100528.03;5056399;28;45097;-85
2021/09/13 03:05:31;;;;;;;;;10.50;9.00;;;;;14.77;66.91;100541.06;5055765;28;46244;-85
2021/09/13 03:07:56;;;;;;;;;9.00;8.75;;;;;14.66;66.52;100518.63;5056348;28;45323;-84
2021/09/13 03:10:21;;;;;;;;;11.00;9.00;;;;;14.74;66.68;100531.44;5056231;28;45355;-84
2021/09/13 03:12:47;;;;;;;;;10.00;8.00;;;;;14.85;66.53;100546.72;5056604;28;45254;-84
2021/09/13 03:15:13;;;;;;;;;8.00;6.00;;;;;14.63;66.61;100500.09;5054431;28;48394;-85
2021/09/13 03:17:39;;;;;;;;;9.00;8.00;;;;;14.66;66.50;100502.56;5055824;28;45322;-84
2021/09/13 03:20:06;;;;;;;;;8.50;8.00;;;;;14.71;66.16;100512.06;5040180;28;45270;-85
2021/09/13 03:22:31;;;;;;;;;9.00;8.00;;;;;14.86;66.32;100532.34;5048818;28;45221;-84
2021/09/13 03:24:56;;;;;;;;;10.50;8.50;;;;;14.72;66.73;100505.75;5049945;28;48067;-85
2021/09/13 03:27:22;;;;;;;;;9.00;9.00;;;;;14.81;66.75;100516.63;5034515;28;45191;-84
2021/09/13 03:29:47;;;;;;;;;9.50;9.50;;;;;14.67;66.76;100495.38;5034184;28;45161;-85
2021/09/13 03:32:12;;;;;;;;;8.50;7.50;;;;;14.74;66.90;100510.03;5035335;28;45175;-85
2021/09/13 03:34:38;;;;;;;;;10.00;8.50;;;;;14.74;66.74;100503.81;5033947;28;46989;-85
2021/09/13 03:37:03;;;;;;;;;8.00;8.00;;;;;14.84;66.61;100521.75;5035552;28;45206;-85
2021/09/13 03:39:29;;;;;;;;;10.00;10.00;;;;;14.89;66.69;100518.72;5035127;28;45731;-84
2021/09/13 03:41:54;;;;;;;;;10.00;10.00;;;;;14.90;66.95;100519.59;5035650;28;45202;-84
2021/09/13 03:44:20;;;;;;;;;10.50;10.00;;;;;14.65;66.94;100478.56;5034517;28;47055;-85
2021/09/13 03:46:45;;;;;;;;;7.25;7.25;;;;;14.89;66.72;100521.41;5053889;28;45445;-85
2021/09/13 03:49:10;;;;;;;;;7.50;7.00;;;;;14.95;66.74;100522.78;5039158;28;45206;-85
2021/09/13 03:51:36;;;;;;;;;9.50;8.50;;;;;14.80;67.06;100490.81;5038919;28;45180;-84
2021/09/13 03:54:01;;;;;;;;;9.00;8.00;;;;;14.91;66.90;100516.81;5036910;28;47414;-85
2021/09/13 03:56:27;;;;;;;;;9.50;8.50;;;;;14.81;66.87;100489.03;5038846;28;45278;-84
2021/09/13 03:58:53;;;;;;;;;8.00;7.00;;;;;15.00;66.78;100526.81;5037270;28;45195;-85
2021/09/13 04:01:18;;;;;;;;;7.25;7.25;;;;;14.80;66.68;100487.31;5039006;28;45299;-84
2021/09/13 04:03:46;;;;;;;;;8.00;8.00;;;;;14.83;66.50;100495.09;5037271;28;47411;-84
2021/09/13 04:06:21;;;;;;;;;8.00;6.75;;;;;14.73;66.86;100481.53;5053576;28;45758;-84
2021/09/13 04:11:49;;;;;;;;;10.25;9.50;;;;;14.84;66.57;100500.34;5016388;28;45369;-85
2021/09/13 04:14:15;;;;;;;;;11.25;10.00;;;;;14.99;67.03;100525.13;4999112;28;47312;-85
2021/09/13 04:16:42;;;;;;;;;13.50;9.50;;;;;14.83;66.86;100492.44;5016092;28;45504;-84
2021/09/13 04:19:08;;;;;;;;;10.25;9.00;;;;;14.99;67.16;100517.09;5015577;28;45256;-85
2021/09/13 04:21:33;;;;;;;;;5.75;5.75;;;;;14.87;67.06;100496.59;5016388;28;45445;-85
2021/09/13 04:23:59;;;;;;;;;12.00;9.25;;;;;14.76;67.01;100469.75;5015887;28;45237;-85
2021/09/13 04:26:24;;;;;;;;;8.25;8.25;;;;;14.87;66.97;100483.19;5015426;28;45243;-84
2021/09/13 04:28:49;;;;;;;;;9.25;8.50;;;;;14.72;66.72;100454.91;5016258;28;45186;-84
2021/09/13 04:31:15;;;;;;;;;11.00;8.75;;;;;14.83;66.94;100477.22;5016372;28;45320;-84
2021/09/13 04:33:40;;;;;;;;;10.25;10.25;;;;;14.88;66.67;100487.59;4998908;28;47948;-84
2021/09/13 04:36:05;;;;;;;;;11.00;11.00;;;;;14.84;66.80;100483.44;5015448;28;45351;-85
2021/09/13 04:38:30;;;;;;;;;9.25;8.75;;;;;14.89;66.53;100491.97;5016276;28;45388;-85
2021/09/13 04:40:56;;;;;;;;;12.75;10.25;;;;;14.81;66.89;100486.34;5015692;28;45245;-85
2021/09/13 04:43:21;;;;;;;;;12.75;8.75;;;;;14.76;66.80;100480.47;5015444;28;46975;-85
2021/09/13 04:45:46;;;;;;;;;11.50;10.50;;;;;14.73;67.01;100488.72;5015277;28;45368;-86
2021/09/13 04:48:12;;;;;;;;;9.50;7.75;;;;;14.72;66.87;100492.38;5012161;28;45537;-85
2021/09/13 04:50:37;;;;;;;;;9.00;9.00;;;;;14.75;67.06;100500.16;5037795;28;45242;-85
2021/09/13 04:53:02;;;;;;;;;10.50;10.00;;;;;14.71;67.11;100496.00;5037959;28;45258;-85
2021/09/13 04:55:28;;;;;;;;;7.75;7.75;;;;;14.72;67.17;100497.72;5037036;28;45246;-86
2021/09/13 04:57:53;;;;;;;;;11.25;9.00;;;;;14.58;67.04;100471.94;5037897;28;45340;-85
2021/09/13 05:00:21;;;;;;;;;12.25;10.75;;;;;14.65;67.05;100482.13;5037891;28;45243;-85
2021/09/13 05:02:47;;;;;;;;;9.00;9.00;;;;;14.54;67.35;100474.00;5037455;28;46335;-84
2021/09/13 05:05:12;;;;;;;;;11.00;10.00;;;;;14.45;66.70;100458.59;5035725;28;45256;-85
2021/09/13 05:07:37;;;;;;;;;12.50;10.00;;;;;14.71;66.81;100498.66;5037595;28;45256;-86
2021/09/13 05:10:03;;;;;;;;;11.50;10.25;;;;;14.44;66.89;100457.75;5036358;28;45159;-85
2021/09/13 05:12:28;;;;;;;;;8.75;8.75;;;;;14.60;66.96;100496.78;5037202;28;47329;-86
2021/09/13 05:14:54;;;;;;;;;12.50;8.50;;;;;14.47;66.93;100486.94;5037219;28;45230;-85
2021/09/13 05:17:19;;;;;;;;;10.75;10.75;;;;;14.32;66.99;100464.88;5037670;28;45151;-85
2021/09/13 05:19:44;;;;;;;;;12.75;12.00;;;;;14.25;67.20;100455.59;5037423;28;45276;-85
2021/09/13 05:22:10;;;;;;;;;9.50;9.50;;;;;14.42;67.08;100493.59;5037450;28;46369;-84
2021/09/13 05:24:35;;;;;;;;;9.50;9.00;;;;;14.43;67.21;100504.19;5037406;28;45287;-84
2021/09/13 05:27:00;;;;;;;;;11.50;11.00;;;;;14.23;67.06;100462.00;5037183;28;45187;-85
2021/09/13 05:29:26;;;;;;;;;16.00;14.50;;;;;14.18;67.69;100462.34;5037325;28;45332;-85
2021/09/13 05:31:51;;;;;;;;;12.25;11.00;;;;;14.29;67.54;100474.91;5052510;28;48396;-85
2021/09/13 05:34:16;;;;;;;;;11.75;10.25;;;;;14.36;67.92;100484.19;5037573;28;45435;-86
2021/09/13 05:36:42;;;;;;;;;13.75;11.75;;;;;14.25;67.90;100471.63;5037294;28;45749;-86
2021/09/13 05:39:07;;;;;;;;;16.75;12.50;;;;;14.29;67.88;100480.25;5037181;28;45322;-86
2021/09/13 05:41:33;;;;;;;;;14.00;12.25;;;;;14.15;67.88;100454.50;5037237;28;45259;-86
2021/09/13 05:43:58;;;;;;;;;12.00;11.75;;;;;14.23;67.97;100470.03;5035339;28;45654;-85
2021/09/13 05:46:23;;;;;;;;;13.00;12.50;;;;;14.33;67.90;100495.97;5035647;28;45349;-84
2021/09/13 05:48:49;;;;;;;;;12.00;9.50;;;;;14.29;67.98;100477.59;5035296;28;45234;-86
2021/09/13 05:51:14;;;;;;;;;12.25;11.00;;;;;14.36;67.74;100489.56;5036706;28;46240;-85
2021/09/13 05:53:39;;;;;;;;;14.00;12.00;;;;;14.23;67.72;100478.88;5036111;28;45529;-84
2021/09/13 05:56:05;;;;;;;;;16.75;12.00;;;;;14.29;67.63;100485.63;5035458;28;45194;-85
2021/09/13 05:58:30;;;;;;;;;12.50;10.75;;;;;14.13;67.73;100456.47;5036372;28;45246;-84
2021/09/13 06:00:55;;;;;;;;;16.00;12.00;;;;;14.08;67.83;100446.09;5051875;28;46940;-84
2021/09/13 06:03:21;;;;;;;;;10.25;10.25;;;;;14.31;68.06;100483.69;5035197;28;45300;-86
2021/09/13 06:05:46;;;;;;;;;15.25;11.00;;;;;14.40;68.02;100499.06;5036487;28;45171;-85
2021/09/13 06:08:11;;;;;;;;;15.25;13.00;;;;;14.21;67.81;100459.44;5034539;28;45147;-85
2021/09/13 06:10:37;;;;;;;;;11.00;9.25;;;;;14.13;67.97;100441.25;5036202;28;45532;-85
2021/09/13 06:13:02;;;;;;;;;12.75;11.25;;;;;14.48;68.12;100495.84;5036446;28;45304;-84
2021/09/13 06:15:28;;;;;;;;;10.00;10.00;;;;;14.55;68.35;100499.78;5036159;28;45215;-83
2021/09/13 06:17:53;;;;;;;;;10.25;10.25;;;;;14.65;68.25;100498.19;5036590;28;45479;-86
2021/09/13 06:20:20;;;;;;;;;11.25;11.25;;;;;14.78;68.52;100502.63;5037875;28;46064;-84
2021/09/13 06:22:45;;;;;;;;;9.75;9.75;;;;;14.95;68.42;100509.38;5036366;28;45614;-84
2021/09/13 06:25:11;;;;;;;;;11.25;10.25;;;;;15.15;68.05;100506.09;5040080;28;45285;-85
2021/09/13 06:27:36;;;;;;;;;11.00;11.00;;;;;15.35;67.53;100515.28;5035780;28;45141;-84
2021/09/13 06:30:01;;;;;;;;;13.50;9.50;;;;;15.62;67.22;100513.28;5057185;28;47208;-86
2021/09/13 06:32:27;;;;;;;;;11.00;10.50;;;;;15.85;66.68;100514.22;5055440;28;45288;-85
2021/09/13 06:34:52;;;;;;;;;13.75;12.00;;;;;16.05;66.22;100510.81;5057856;28;45265;-87
2021/09/13 06:37:20;;;;;;;;;10.00;10.00;;;;;16.27;65.88;100522.50;5057178;28;45331;-84
2021/09/13 06:39:46;;;;;;;;;10.50;10.50;;;;;16.50;65.28;100523.38;5056410;28;46444;-90
2021/09/13 06:42:12;;;;;;;;;14.25;11.00;;;;;16.70;64.56;100524.44;5056254;28;45670;-88
2021/09/13 06:44:38;;;;;;;;;11.00;11.00;;;;;16.79;64.21;100517.44;5056572;28;45219;-89
2021/09/13 06:47:09;;;;;;;;;10.50;8.50;;;;;16.96;63.94;100524.16;5055589;28;45284;-86
2021/09/13 06:49:35;;;;;;;;;13.50;12.00;;;;;17.08;63.79;100516.88;5055663;28;45530;-85
2021/09/13 06:52:03;;;;;;;;;11.25;9.50;;;;;17.22;63.70;100524.66;5055887;28;45245;-84
2021/09/13 06:54:28;;;;;;;;;10.00;10.00;;;;;17.37;63.42;100527.88;5056157;28;45209;-84
2021/09/13 06:56:56;;;;;;;;;7.00;7.00;;;;;17.56;63.05;100524.47;5057224;28;45202;-85
2021/09/13 06:59:22;;;;;;;;;10.25;8.50;;;;;17.74;62.34;100523.88;5057044;28;47120;-84
2021/09/13 07:01:48;;;;;;;;;9.50;8.75;;;;;17.85;61.85;100514.88;5057670;28;45249;-85
2021/09/13 07:04:13;;;;;;;;;10.50;10.00;;;;;18.02;61.95;100525.06;5056775;28;45310;-84
2021/09/13 07:06:39;;;;;;;;;12.50;9.00;;;;;18.13;61.26;100524.13;5056150;28;45199;-84
2021/09/13 07:09:04;;;;;;;;;15.00;10.50;;;;;18.24;61.27;100523.16;5055218;28;46151;-84
2021/09/13 07:11:30;;;;;;;;;10.75;10.75;;;;;18.33;61.16;100519.69;5056043;28;45261;-84
2021/09/13 07:13:55;;;;;;;;;12.25;11.50;;;;;18.45;60.65;100518.59;5056080;28;45241;-84
2021/09/13 07:16:21;;;;;;;;;11.75;11.25;;;;;18.60;60.96;100519.03;5056190;28;45309;-84
2021/09/13 07:18:47;;;;;;;;;12.75;11.50;;;;;18.76;60.19;100517.66;5057580;28;45973;-85
2021/09/13 07:21:13;;;;;;;;;12.50;12.00;;;;;18.80;59.80;100503.78;5059584;28;45221;-84
2021/09/13 07:23:38;;;;;;;;;10.50;10.50;;;;;18.83;59.94;100507.19;5059427;28;45199;-84
2021/09/13 07:26:04;;;;;;;;;12.00;12.00;;;;;18.76;59.66;100498.81;5059295;28;45425;-85
2021/09/13 07:28:29;;;;;;;;;13.50;12.00;;;;;18.75;59.66;100497.94;5059160;28;45923;-85
2021/09/13 07:30:55;;;;;;;;;14.25;12.75;;;;;18.80;59.65;100506.47;5057305;28;45222;-84
2021/09/13 07:33:20;;;;;;;;;16.25;13.25;;;;;18.75;59.58;100494.41;5059111;28;45286;-85
2021/09/13 07:35:45;;;;;;;;;14.75;12.00;;;;;18.84;59.61;100501.66;5059209;28;45484;-85
2021/09/13 07:38:11;;;;;;;;;14.75;12.75;;;;;18.92;60.01;100496.44;5059499;28;46115;-85
2021/09/13 07:40:36;;;;;;;;;13.25;13.25;;;;;18.99;59.75;100496.72;5059100;28;45417;-85
2021/09/13 07:43:01;;;;;;;;;12.25;12.25;;;;;19.09;59.73;100497.59;5059213;28;45194;-84
2021/09/13 07:45:27;;;;;;;;;15.25;12.75;;;;;19.29;59.24;100502.97;5058750;28;45277;-85
2021/09/13 07:47:52;;;;;;;;;13.00;12.33;;;;;19.46;58.84;100485.22;5059001;28;46446;-84
2021/09/13 07:50:17;;;;;;;;;14.50;11.75;;;;;19.80;58.32;100495.56;5058878;28;45254;-85
2021/09/13 07:52:44;;;;;;;;;16.25;13.25;;;;;20.08;57.81;100482.09;5059338;28;45158;-85
2021/09/13 07:55:10;;;;;;;;;15.75;13.50;;;;;20.33;57.20;100477.84;5059332;28;45420;-85
2021/09/13 07:57:35;;;;;;;;;16.50;15.50;;;;;20.62;57.03;100476.81;5058004;28;46076;-85
2021/09/13 08:00:14;;;;;;;;;13.50;13.50;;;;;20.84;56.20;100476.41;5059283;28;45289;-85
2021/09/13 08:02:41;;;;;;;;;18.50;16.00;;;;;21.05;55.52;100477.97;5059411;28;45217;-85
2021/09/13 08:05:07;;;;;;;;;15.75;14.75;;;;;21.18;55.47;100478.41;5058793;28;45298;-85
2021/09/13 08:07:33;;;;;;;;;15.00;13.50;;;;;21.40;55.33;100480.78;5058944;28;46000;-84
2021/09/13 08:09:58;;;;;;;;;15.00;13.25;;;;;21.62;54.89;100480.31;5058344;28;45178;-85
2021/09/13 08:12:24;;;;;;;;;17.50;15.50;;;;;21.75;53.85;100466.34;5059465;28;45154;-85
2021/09/13 08:14:49;;;;;;;;;18.25;14.00;;;;;21.92;53.35;100482.66;5058775;28;45279;-85
2021/09/13 08:17:14;;;;;;;;;14.50;13.25;;;;;21.88;53.03;100463.22;5058941;28;45298;-85
2021/09/13 08:19:40;;;;;;;;;18.50;16.50;;;;;21.97;53.02;100480.34;5058508;28;45261;-84
2021/09/13 08:22:07;;;;;;;;;16.00;15.25;;;;;21.78;53.04;100476.84;5058632;28;45207;-85
2021/09/13 08:24:34;;;;;;;;;14.00;13.50;;;;;21.63;53.39;100482.00;5058720;28;45188;-84
2021/09/13 08:27:00;;;;;;;;;16.00;13.00;;;;;21.59;52.98;100490.59;5058680;28;45996;-85
2021/09/13 08:29:25;;;;;;;;;18.50;14.75;;;;;21.53;53.13;100481.25;5057758;28;45282;-85
2021/09/13 08:31:52;;;;;;;;;12.50;11.00;;;;;21.51;53.40;100481.41;5058349;28;45252;-84
2021/09/13 08:42:03;;;;;;;;;15.50;14.25;;;;;21.98;53.43;100498.28;5484511;22;45716;-92
2021/09/13 08:44:32;;;;;;;;;16.50;13.25;;;;;22.13;52.74;100487.69;5040077;28;45299;-89
2021/09/13 08:47:03;;;;;;;;;17.00;14.75;;;;;22.39;52.24;100507.47;5038448;28;46166;-90
2021/09/13 08:49:39;;;;;;;;;15.75;13.00;;;;;22.60;51.91;100492.63;5038841;28;45248;-89
2021/09/13 08:52:05;;;;;;;;;16.75;13.50;;;;;22.74;51.28;100478.44;5038787;28;45231;-88
2021/09/13 08:54:34;;;;;;;;;17.50;15.75;;;;;23.00;50.88;100501.88;5044175;28;45428;-90
2021/09/13 08:57:03;;;;;;;;;17.25;14.25;;;;;23.10;50.51;100510.72;5019839;28;47284;-89
2021/09/13 08:59:29;;;;;;;;;15.25;13.00;;;;;23.21;50.11;100501.41;5038300;28;45641;-90
2021/09/13 09:01:55;;;;;;;;;18.50;16.50;;;;;23.33;49.61;100507.38;5038651;28;45370;-89
2021/09/13 09:04:22;;;;;;;;;15.25;14.25;;;;;23.39;50.22;100498.53;5039067;28;45096;-90
2021/09/13 09:06:48;;;;;;;;;16.25;13.00;;;;;23.55;49.68;100513.94;5038295;28;45962;-89
2021/09/13 09:09:22;;;;;;;;;13.75;12.00;;;;;23.60;49.95;100486.28;5040030;28;45835;-88
2021/09/13 09:12:00;;;;;;;;;16.00;12.50;;;;;23.81;49.54;100498.50;5045633;28;45271;-86
2021/09/13 09:14:41;;;;;;;;;12.25;12.00;;;;;23.95;49.04;100490.50;5022145;28;45363;-91
2021/09/13 09:17:08;;;;;;;;;16.00;10.50;;;;;24.17;48.45;100498.94;5037964;28;46049;-87
2021/09/13 09:19:34;;;;;;;;;13.75;12.50;;;;;24.34;48.21;100498.84;5020001;28;45703;-88
2021/09/13 09:22:19;;;;;;;;;15.75;12.00;;;;;24.60;47.41;100506.75;5038039;28;45251;-88
2021/09/13 09:24:46;;;;;;;;;12.50;12.00;;;;;24.77;47.26;100496.59;5036384;28;45324;-89
2021/09/13 09:27:11;;;;;;;;;14.25;11.50;;;;;24.93;47.02;100501.97;5038862;28;45916;-88
2021/09/13 09:29:37;;;;;;;;;9.50;9.50;;;;;25.15;46.18;100492.13;5037953;28;45205;-86
2021/09/13 09:32:03;;;;;;;;;11.50;8.50;;;;;25.39;45.49;100483.97;5038565;28;45266;-88
2021/09/13 09:34:33;;;;;;;;;12.25;8.75;;;;;25.70;44.83;100491.16;5020337;28;45335;-87
2021/09/13 09:36:59;;;;;;;;;9.75;7.50;;;;;25.91;44.63;100482.22;5038214;28;45161;-88
2021/09/13 09:39:32;;;;;;;;;14.00;9.50;;;;;26.00;44.45;100473.81;5037887;28;45284;-88
2021/09/13 09:41:58;;;;;;;;;10.00;8.00;;;;;26.34;44.57;100479.72;5038006;28;45152;-87
2021/09/13 09:44:24;;;;;;;;;11.00;9.50;;;;;26.70;43.81;100482.47;5038812;28;45184;-88
2021/09/13 09:46:51;;;;;;;;;12.00;9.00;;;;;27.11;42.87;100481.00;5038374;28;46126;-88
2021/09/13 09:49:21;;;;;;;;;9.00;9.00;;;;;27.50;42.78;100476.09;5037605;28;45212;-88
2021/09/13 09:51:50;;;;;;;;;12.00;10.50;;;;;27.86;41.56;100472.34;5019665;28;45234;-88
2021/09/13 09:54:19;;;;;;;;;7.75;7.25;;;;;28.16;40.52;100466.66;5035820;28;45441;-87
2021/09/13 09:57:05;;;;;;;;;9.50;7.75;;;;;28.33;40.77;100458.97;5037029;28;45374;-90
2021/09/13 09:59:37;;;;;;;;;7.50;7.00;;;;;28.55;40.39;100456.94;5001098;28;45208;-88
2021/09/13 10:02:14;;;;;;;;;9.25;9.00;;;;;28.67;39.82;100458.03;5018872;28;45400;-89
2021/09/13 10:04:40;;;;;;;;;11.00;7.25;;;;;28.83;39.29;100461.44;5018980;28;45280;-90
2021/09/13 10:07:06;;;;;;;;;8.75;7.00;;;;;28.90;39.14;100454.09;5018198;28;46066;-90
2021/09/13 10:09:31;;;;;;;;;9.00;7.50;;;;;29.05;38.60;100454.75;5018626;28;45209;-88
2021/09/13 10:11:59;;;;;;;;;7.50;7.00;;;;;29.23;38.78;100451.44;5001230;28;45123;-89
2021/09/13 10:14:28;;;;;;;;;11.25;8.50;;;;;29.44;37.81;100455.84;5019227;28;45251;-88
2021/09/13 10:16:54;;;;;;;;;9.75;8.75;;;;;29.53;37.95;100447.38;5018806;28;45248;-90
2021/09/13 10:19:23;;;;;;;;;11.75;8.75;;;;;29.59;37.40;100444.66;5018967;28;45246;-90
2021/09/13 10:21:49;;;;;;;;;8.25;8.00;;;;;29.71;37.47;100447.56;5019107;28;45232;-88
2021/09/13 10:24:31;;;;;;;;;10.75;8.00;;;;;29.83;37.36;100444.16;5019239;28;45196;-88
2021/09/13 10:27:02;;;;;;;;;7.00;5.75;;;;;29.90;37.63;100442.28;5018805;28;45609;-92
2021/09/13 10:29:28;;;;;;;;;9.00;9.00;;;;;29.76;36.66;100445.03;5021142;28;45479;-93
2021/09/13 10:32:00;;;;;;;;;7.75;7.75;;;;;29.58;36.97;100437.47;5021721;28;45165;-92
2021/09/13 10:34:31;;;;;;;;;7.50;7.00;;;;;29.48;37.81;100438.97;5021539;28;45244;-93
2021/09/13 10:37:12;;;;;;;;;8.25;7.00;;;;;29.39;37.30;100432.88;5021527;28;46178;-91
2021/09/13 10:39:51;;;;;;;;;7.50;5.00;;;;;29.21;37.38;100428.00;5021716;28;45240;-92
2021/09/13 10:42:45;;;;;;;;;8.50;6.00;;;;;29.22;37.80;100427.81;5021269;28;45114;-92
2021/09/13 10:45:21;;;;;;;;;10.00;7.50;;;;;29.21;37.63;100433.50;5035166;28;45264;-91
2021/09/13 10:47:54;;;;;;;;;7.75;7.50;;;;;29.21;36.99;100433.50;5035779;28;45227;-89
2021/09/13 10:52:57;;;;;;;;;7.25;6.00;;;;;29.12;37.08;100421.03;5644468;22;46014;-84
2021/09/13 10:55:25;;;;;;;;;6.50;5.00;;;;;29.02;37.20;100413.28;5053228;28;45260;-82
2021/09/13 10:58:04;;;;;;;;;6.75;5.50;;;;;28.80;37.95;100410.72;5049096;28;45252;-84
2021/09/13 11:03:22;;;;;;;;;8.50;7.00;;;;;28.51;38.02;100412.75;5049807;28;45212;-84
2021/09/13 11:06:13;;;;;;;;;7.25;7.00;;;;;28.38;38.12;100401.78;5052578;28;45103;-83
2021/09/13 11:08:41;;;;;;;;;5.50;5.00;;;;;28.39;37.97;100398.00;5053129;28;46199;-87
2021/09/13 11:11:17;;;;;;;;;7.75;5.25;;;;;28.44;38.25;100397.38;5056866;28;44771;-86
2021/09/13 11:13:54;;;;;;;;;6.25;4.25;;;;;28.52;38.52;100394.47;5054319;28;44602;-88
2021/09/13 11:16:19;;;;;;;;;7.50;6.75;;;;;28.58;38.22;100390.88;5055855;28;45086;-86
2021/09/13 11:18:46;;;;;;;;;5.75;5.75;;;;;28.56;37.90;100390.25;5057433;28;45098;-86
2021/09/13 11:21:13;;;;;;;;;8.00;5.75;;;;;28.57;37.22;100386.47;5052124;28;45454;-85
2021/09/13 11:23:38;;;;;;;;;7.00;6.00;;;;;28.59;37.75;100378.91;5038706;28;45245;-85
2021/09/13 11:26:03;;;;;;;;;5.75;5.75;;;;;28.64;37.88;100381.03;5035958;28;45253;-86
2021/09/13 11:28:29;;;;;;;;;6.75;4.50;;;;;28.72;37.58;100367.16;5017637;28;47299;-86
2021/09/13 11:30:54;;;;;;;;;4.25;3.25;;;;;28.87;37.05;100375.16;5036387;28;45242;-87